Agua Nueva, Texas
Current Conditions -  °F | °C
As of 5:35 PM on Thursday 18 Dec 2014 (Local Time) from KHBV Reporting Station
Overcast Overcast  
Wind Chill: 17°   Ceiling: 600
Heat Index: 17°   Visibility: 2.5mi
Dew Point: 17°   Wind: 5mph
Humidity: 95%   Direction: 340°NNW
Pressure: 29.99"   Gusts: NA
Location:  27.0695°N, 98.7494°W
Report Text: KHBV 182335Z AUTO 34004KT 2 1/2SM BKN006 OVC050 17/17 A2999 RMK AO2 T01730165 PWINO
Loading
Personal Weather Stations






























Interactive Weather Map New forecast layout! Learn more

10-Day Weather Forecast

Advertisements
Track Severe Weather on mobile